createdAt,value
2022-09-16T00:04:03.836Z,13.17
2022-09-16T00:08:16.196Z,13.26
2022-09-16T00:12:28.300Z,13.33
2022-09-16T00:16:40.149Z,13.38
2022-09-16T00:20:54.751Z,13.44
2022-09-16T00:25:07.746Z,13.49
2022-09-16T00:29:19.293Z,13.50
2022-09-16T00:33:31.466Z,13.49
2022-09-16T00:37:43.021Z,13.49
2022-09-16T00:41:54.646Z,13.54
2022-09-16T00:46:06.163Z,13.50
2022-09-16T00:50:27.752Z,13.49
2022-09-16T00:54:41.238Z,13.49
2022-09-16T00:59:03.292Z,13.51
2022-09-16T01:03:14.921Z,13.46
2022-09-16T01:07:33.214Z,13.46
2022-09-16T01:11:44.841Z,13.47
2022-09-16T01:16:05.477Z,13.51
2022-09-16T01:20:54.793Z,13.53
2022-09-16T01:25:24.670Z,13.49
2022-09-16T01:30:01.418Z,13.41
2022-09-16T01:34:31.047Z,13.43
2022-09-16T01:39:09.522Z,13.44
2022-09-16T01:43:34.709Z,13.42
2022-09-16T01:48:05.103Z,13.42
2022-09-16T01:52:25.861Z,13.40
2022-09-16T01:57:08.811Z,13.39
2022-09-16T02:01:36.181Z,13.34
2022-09-16T02:05:55.488Z,13.24
2022-09-16T02:10:32.678Z,13.20
2022-09-16T02:14:48.095Z,13.14
2022-09-16T02:19:05.389Z,13.16
2022-09-16T02:23:25.181Z,13.23
2022-09-16T02:27:39.607Z,13.22
2022-09-16T02:31:56.119Z,13.23
2022-09-16T02:36:09.626Z,13.21
2022-09-16T02:40:26.903Z,13.14
2022-09-16T02:44:38.822Z,13.02
2022-09-16T02:48:53.323Z,12.90
2022-09-16T02:53:19.700Z,12.79
2022-09-16T02:57:31.753Z,12.73
2022-09-16T03:01:46.113Z,12.78
2022-09-16T03:06:10.179Z,12.81
2022-09-16T03:10:25.702Z,12.86
2022-09-16T03:15:01.534Z,12.87
2022-09-16T03:19:25.038Z,12.83
2022-09-16T03:24:10.620Z,12.88
2022-09-16T03:28:40.877Z,12.90
2022-09-16T03:33:04.706Z,12.87
2022-09-16T03:37:19.833Z,12.85
2022-09-16T03:41:33.982Z,12.89
2022-09-16T03:45:45.615Z,12.88
2022-09-16T03:49:57.221Z,12.86
2022-09-16T03:54:08.850Z,12.89
2022-09-16T03:58:20.573Z,12.93
2022-09-16T04:02:32.362Z,12.91
2022-09-16T04:06:44.026Z,12.97
2022-09-16T04:10:57.382Z,13.00
2022-09-16T04:15:09.322Z,12.90
2022-09-16T04:19:21.073Z,12.85
2022-09-16T04:23:32.583Z,12.85
2022-09-16T04:27:44.137Z,12.85
2022-09-16T04:31:55.786Z,12.79
2022-09-16T04:36:13.301Z,12.85
2022-09-16T04:40:24.918Z,12.82
2022-09-16T04:44:36.490Z,12.81
2022-09-16T04:48:49.445Z,12.79
2022-09-16T04:53:01.003Z,12.81
2022-09-16T04:57:12.623Z,12.75
2022-09-16T05:01:26.586Z,12.71
2022-09-16T05:05:38.096Z,12.67
2022-09-16T05:09:49.595Z,12.63
2022-09-16T05:14:02.754Z,12.59
2022-09-16T05:18:14.271Z,12.49
2022-09-16T05:22:25.782Z,12.40
2022-09-16T05:26:39.984Z,12.34
2022-09-16T05:30:51.523Z,12.26
2022-09-16T05:35:03.208Z,12.24
2022-09-16T05:39:23.277Z,12.19
2022-09-16T05:43:36.075Z,12.12
2022-09-16T05:47:51.459Z,12.16
2022-09-16T05:52:03.093Z,12.10
2022-09-16T05:56:17.615Z,12.16
2022-09-16T06:00:29.727Z,12.25
2022-09-16T06:04:41.621Z,12.31
2022-09-16T06:08:56.769Z,12.45
2022-09-16T06:13:08.354Z,13.54
2022-09-16T06:17:19.884Z,15.27
2022-09-16T06:21:31.689Z,16.70
2022-09-16T06:25:44.041Z,17.25
2022-09-16T06:29:55.554Z,17.73
2022-09-16T06:34:08.469Z,18.71
2022-09-16T06:38:19.998Z,19.37
2022-09-16T06:42:31.994Z,20.05
2022-09-16T06:46:48.264Z,20.63
2022-09-16T06:51:01.851Z,20.86
2022-09-16T06:55:13.413Z,21.08
2022-09-16T06:59:25.010Z,21.41
2022-09-16T07:03:45.018Z,21.58
2022-09-16T07:07:58.073Z,21.98
2022-09-16T07:12:09.660Z,21.85
2022-09-16T07:16:23.522Z,21.88
2022-09-16T07:20:36.039Z,22.30
2022-09-16T07:24:47.630Z,22.61
2022-09-16T07:29:01.087Z,22.07
2022-09-16T07:33:12.702Z,21.17
2022-09-16T07:37:24.276Z,20.86
2022-09-16T07:41:38.192Z,20.52
2022-09-16T07:45:59.687Z,19.87
2022-09-16T07:50:11.271Z,19.74
2022-09-16T07:54:22.882Z,19.69
2022-09-16T07:58:34.862Z,20.29
2022-09-16T08:02:46.379Z,21.86
2022-09-16T08:06:58.002Z,22.40
2022-09-16T08:11:10.184Z,22.26
2022-09-16T08:15:21.696Z,22.68
2022-09-16T08:19:33.330Z,23.48
2022-09-16T08:23:45.601Z,24.41
2022-09-16T08:27:57.142Z,25.18
2022-09-16T08:32:08.765Z,25.26
2022-09-16T08:36:22.753Z,25.53
2022-09-16T08:40:36.601Z,25.83
2022-09-16T08:45:10.815Z,25.49
2022-09-16T08:49:26.838Z,25.86
2022-09-16T08:53:44.637Z,25.95
2022-09-16T08:58:02.174Z,25.84
2022-09-16T09:02:47.713Z,25.03
2022-09-16T09:07:05.322Z,23.88
2022-09-16T09:11:39.497Z,23.09
2022-09-16T09:16:04.292Z,22.52
2022-09-16T09:20:57.936Z,23.93
2022-09-16T09:25:34.336Z,24.22
2022-09-16T09:30:07.076Z,25.23
2022-09-16T09:34:53.387Z,25.53
2022-09-16T09:39:09.665Z,25.69
2022-09-16T09:43:42.343Z,26.12
2022-09-16T09:48:10.981Z,26.12
2022-09-16T09:52:26.408Z,26.35
2022-09-16T09:56:44.434Z,26.43
2022-09-16T10:00:57.567Z,26.22
2022-09-16T10:05:24.904Z,26.65
2022-09-16T10:09:38.005Z,26.73
2022-09-16T10:13:55.616Z,26.16
2022-09-16T10:18:19.206Z,26.69
2022-09-16T10:22:33.373Z,26.18
2022-09-16T10:26:44.937Z,26.87
2022-09-16T10:30:58.559Z,27.53
2022-09-16T10:35:15.819Z,27.82
2022-09-16T10:39:29.932Z,27.28
2022-09-16T10:43:51.026Z,27.66
2022-09-16T10:48:12.881Z,27.18
2022-09-16T10:52:27.632Z,26.97
2022-09-16T10:56:51.521Z,25.90
2022-09-16T11:01:21.696Z,25.19
2022-09-16T11:05:36.322Z,24.24
2022-09-16T11:10:09.673Z,23.20
2022-09-16T11:14:50.795Z,22.15
2022-09-16T11:19:23.567Z,21.42
2022-09-16T11:24:03.138Z,22.21
2022-09-16T11:28:18.362Z,23.21
2022-09-16T11:32:55.003Z,24.20
2022-09-16T11:37:32.767Z,24.85
2022-09-16T11:42:14.257Z,25.74
2022-09-16T11:46:56.491Z,26.44
2022-09-16T11:51:36.984Z,25.44
2022-09-16T11:56:07.521Z,24.13
2022-09-16T12:00:19.482Z,23.44
2022-09-16T12:05:01.486Z,23.89
2022-09-16T12:09:20.521Z,24.34
2022-09-16T12:13:46.236Z,24.88
2022-09-16T12:18:03.426Z,25.10
2022-09-16T12:22:20.760Z,24.50
2022-09-16T12:26:38.597Z,23.96
2022-09-16T12:31:12.723Z,23.71
2022-09-16T12:39:43.536Z,22.62
2022-09-16T12:44:30.417Z,22.27
2022-09-16T12:49:15.564Z,22.27
2022-09-16T12:53:42.318Z,22.20
2022-09-16T12:58:09.447Z,21.95
2022-09-16T13:02:26.870Z,21.51
2022-09-16T13:06:45.686Z,21.16
2022-09-16T13:11:28.417Z,21.22
2022-09-16T13:15:35.116Z,21.14
2022-09-16T13:19:52.002Z,20.89
2022-09-16T13:24:16.429Z,20.92
2022-09-16T13:28:35.140Z,21.09
2022-09-16T13:33:08.496Z,20.90
2022-09-16T13:37:26.543Z,20.77
2022-09-16T13:41:41.355Z,20.47
2022-09-16T13:46:11.009Z,20.46
2022-09-16T13:50:25.486Z,20.14
2022-09-16T13:55:09.430Z,19.63
2022-09-16T13:59:23.184Z,19.09
2022-09-16T14:03:49.998Z,18.95
2022-09-16T14:08:29.288Z,18.89
2022-09-16T14:12:50.002Z,18.91
2022-09-16T14:17:14.191Z,18.94
2022-09-16T14:21:25.795Z,19.01
2022-09-16T14:25:38.943Z,19.08
2022-09-16T14:30:01.753Z,19.32
2022-09-16T14:34:22.205Z,19.19
2022-09-16T14:39:07.077Z,19.17
2022-09-16T14:43:18.948Z,19.40
2022-09-16T14:47:53.401Z,19.63
2022-09-16T14:52:15.960Z,19.68
2022-09-16T14:56:27.518Z,19.43
2022-09-16T15:00:50.818Z,18.88
2022-09-16T15:05:23.940Z,18.50
2022-09-16T15:09:43.224Z,17.89
2022-09-16T15:13:55.277Z,17.86
2022-09-16T15:18:24.223Z,17.73
2022-09-16T15:22:39.969Z,17.59
2022-09-16T15:26:52.588Z,17.60
2022-09-16T15:31:05.362Z,17.62
2022-09-16T15:35:22.310Z,17.55
2022-09-16T15:39:39.065Z,17.45
2022-09-16T15:43:50.794Z,17.48
2022-09-16T15:48:07.577Z,17.52
2022-09-16T15:52:19.395Z,17.52
2022-09-16T15:56:48.770Z,17.47
2022-09-16T16:01:04.757Z,17.27
2022-09-16T16:05:25.368Z,17.02
2022-09-16T16:09:40.499Z,17.01
2022-09-16T16:13:52.107Z,17.02
2022-09-16T16:18:08.702Z,17.01
2022-09-16T16:22:20.606Z,16.76
2022-09-16T16:26:32.247Z,16.70
2022-09-16T16:30:43.803Z,16.78
2022-09-16T16:34:58.027Z,16.92
2022-09-16T16:39:09.889Z,16.72
2022-09-16T16:43:21.404Z,16.61
2022-09-16T16:47:32.930Z,16.57
2022-09-16T16:51:44.884Z,16.63
2022-09-16T16:56:14.763Z,16.60
2022-09-16T17:00:27.658Z,16.38
2022-09-16T17:04:39.175Z,16.27
2022-09-16T17:08:50.754Z,16.12
2022-09-16T17:13:02.307Z,16.05
2022-09-16T17:17:13.802Z,16.06
2022-09-16T17:21:28.459Z,15.87
2022-09-16T17:25:39.936Z,15.72
2022-09-16T17:29:51.428Z,15.37
2022-09-16T17:34:05.386Z,15.14
2022-09-16T17:38:16.934Z,14.98
2022-09-16T17:42:28.413Z,14.90
2022-09-16T17:46:41.196Z,14.90
2022-09-16T17:50:54.181Z,14.72
2022-09-16T17:55:06.051Z,14.64
2022-09-16T17:59:18.742Z,14.54
2022-09-16T18:03:30.253Z,14.41
2022-09-16T18:07:45.537Z,14.29
2022-09-16T18:11:58.524Z,14.23
2022-09-16T18:16:13.613Z,14.16
2022-09-16T18:20:25.213Z,14.10
2022-09-16T18:24:36.772Z,14.07
2022-09-16T18:33:21.109Z,14.07
2022-09-16T18:37:32.578Z,14.00
2022-09-16T18:41:45.196Z,13.93
2022-09-16T18:46:06.799Z,13.90
2022-09-16T18:50:19.041Z,13.85
2022-09-16T18:54:30.586Z,13.74
2022-09-16T18:58:42.424Z,13.67
2022-09-16T19:02:53.929Z,13.52
2022-09-16T19:07:09.633Z,13.53
2022-09-16T19:11:22.535Z,13.49
2022-09-16T19:15:34.802Z,13.44
2022-09-16T19:19:47.824Z,13.40
2022-09-16T19:24:01.714Z,13.37
2022-09-16T19:28:13.336Z,13.36
2022-09-16T19:32:24.863Z,13.35
2022-09-16T19:36:37.471Z,13.41
2022-09-16T19:40:50.511Z,13.42
2022-09-16T19:45:29.042Z,13.48
2022-09-16T19:49:40.524Z,13.41
2022-09-16T19:53:53.346Z,13.51
2022-09-16T19:58:04.812Z,13.52
2022-09-16T20:02:16.662Z,13.51
2022-09-16T20:06:36.500Z,13.50
2022-09-16T20:10:47.973Z,13.49
2022-09-16T20:15:00.350Z,13.48
2022-09-16T20:19:15.027Z,13.47
2022-09-16T20:23:26.539Z,13.41
2022-09-16T20:27:38.096Z,13.41
2022-09-16T20:31:52.503Z,13.47
2022-09-16T20:36:09.863Z,13.50
2022-09-16T20:40:21.466Z,13.49
2022-09-16T20:44:32.991Z,13.54
2022-09-16T20:48:45.280Z,13.48
2022-09-16T20:52:56.933Z,13.44
2022-09-16T20:57:08.455Z,13.44
2022-09-16T21:01:25.386Z,13.42
2022-09-16T21:05:36.907Z,13.44
2022-09-16T21:09:48.369Z,13.39
2022-09-16T21:14:08.547Z,13.42
2022-09-16T21:18:20.028Z,13.45
2022-09-16T21:22:31.529Z,13.46
2022-09-16T21:26:44.175Z,13.51
2022-09-16T21:31:01.872Z,13.50
2022-09-16T21:35:14.342Z,13.49
2022-09-16T21:39:25.881Z,13.43
2022-09-16T21:43:43.360Z,13.42
2022-09-16T21:47:55.097Z,13.42
2022-09-16T21:52:06.612Z,13.47
2022-09-16T21:56:22.620Z,13.47
2022-09-16T22:00:34.264Z,13.46
2022-09-16T22:04:45.732Z,13.49
2022-09-16T22:09:00.825Z,13.51
2022-09-16T22:13:12.397Z,13.46
2022-09-16T22:17:24.888Z,13.46
2022-09-16T22:21:39.036Z,13.42
2022-09-16T22:25:50.469Z,13.40
2022-09-16T22:30:01.949Z,13.37
2022-09-16T22:34:13.416Z,13.32
2022-09-16T22:38:24.856Z,13.24
2022-09-16T22:42:36.479Z,13.15
2022-09-16T22:46:48.399Z,13.05
2022-09-16T22:51:01.131Z,12.95
2022-09-16T22:55:12.608Z,12.84
2022-09-16T22:59:24.125Z,12.80
2022-09-16T23:03:36.136Z,12.76
2022-09-16T23:07:48.909Z,12.72
2022-09-16T23:12:00.362Z,12.65
2022-09-16T23:16:15.715Z,12.58
2022-09-16T23:20:27.198Z,12.44
2022-09-16T23:24:38.633Z,12.40
2022-09-16T23:28:52.645Z,12.28
2022-09-16T23:33:04.142Z,12.25
2022-09-16T23:37:15.553Z,12.26
2022-09-16T23:41:27.833Z,12.21
2022-09-16T23:45:39.349Z,12.15
2022-09-16T23:49:50.822Z,12.14
2022-09-16T23:54:02.348Z,12.17
2022-09-16T23:58:14.320Z,12.36
